Urania — PAFG — position and weather

sailwx.info

Track history (hours):
 
Tides and Currents Weather Stations Pressure Air Temp Water Temp Dewpoint Dewpoint Depression Visibility Wind Speed Wind Dir Waves Ship Positions

Urania (Netherlands)

Flagship of the Royal Netherlands Naval College.

Last reported at 2020-Jul-23 19:58 UTC. Time now 2020-Aug-09 05:57 UTC.
Position N 52°57' E 004°42'.
Warning: this ship's position is 16 days out of date.

Length 27 m; draft 2.7 m.

Type: Sailing vessel. MMSI: 245804000.

Date/timePositionNaut miles runAvg speedWind from/ knotsBaromVisibWave heightAir tempDewpointWater temp
2020-Jul-23 19:58N 52°57' E 004°42'29 6.6
2020-Jul-23 15:30N 52°29' E 004°26'12 6.0
2020-Jul-23 13:31N 52°18' E 004°20'14 4.7
2020-Jul-23 10:30N 52°05' E 004°10'16 2.9
2020-Jul-23 05:01N 51°49' E 004°02'1 1.0
2020-Jul-23 03:59N 51°49' E 004°04'0 0.0
2020-Jul-23 02:29N 51°49' E 004°04'0 0.0
2020-Jul-23 01:29N 51°49' E 004°04'0 0.0
2020-Jul-22 23:29N 51°49' E 004°04'0 0.0
2020-Jul-22 20:29N 51°49' E 004°04'1 0.6
2020-Jul-22 18:30N 51°49' E 004°05'6 5.8
2020-Jul-22 17:30N 51°46' E 004°14'5 5.3
2020-Jul-22 16:30N 51°44' E 004°22'5 1.1
2020-Jul-22 11:58N 51°39' E 004°19'6 4.0
2020-Jul-22 10:30N 51°40' E 004°10'9 1.9
2020-Jul-22 05:30N 51°31' E 004°04'4 0.2
2020-Jul-21 13:25N 51°28' E 004°00'2 1.4
2020-Jul-21 12:00N 51°27' E 003°58'9 3.7
2020-Jul-21 09:31N 51°24' E 003°43'7 4.8
2020-Jul-21 08:00N 51°27' E 003°33'3 5.6
2020-Jul-21 07:31N 51°29' E 003°30'22 2.9
2020-Jul-20 23:50N 51°50' E 003°41'17 6.1
2020-Jul-20 21:00N 52°02' E 004°02'12 6.0
2020-Jul-20 19:01N 52°13' E 004°08'18 5.1
2020-Jul-20 15:30N 52°27' E 004°26'2 4.4
2020-Jul-20 15:01N 52°29' E 004°27'4 4.4
2020-Jul-20 14:01N 52°34' E 004°30'  
2020-Jul-18 05:30N 52°58' E 004°47'0 0.0
2020-Jul-18 02:06N 52°58' E 004°47'0 0.0
2020-Jul-17 12:11N 52°58' E 004°47'0 0.0
2020-Jul-16 03:40N 52°58' E 004°47'0 0.0
2020-Jul-16 02:46N 52°58' E 004°47'0 0.0
2020-Jul-16 02:20N 52°58' E 004°47'  
Track history (hours):
 
Tides and Currents Weather Stations Pressure Air Temp Water Temp Dewpoint Dewpoint Depression Visibility Wind Speed Wind Dir Waves Ship Positions

Urania (Netherlands)

Flagship of the Royal Netherlands Naval College.

Last reported at 2020-Jul-23 19:58 UTC. Time now 2020-Aug-09 05:57 UTC.
Position N 52°57' E 004°42'.
Warning: this ship's position is 16 days out of date.

Length 27 m; draft 2.7 m.

Type: Sailing vessel. MMSI: 245804000.

Date/timePositionNaut miles runAvg speedWind from/ knotsBaromVisibWave heightAir tempDewpointWater temp
2020-Jul-23 19:58N 52°57' E 004°42'29 6.6
2020-Jul-23 15:30N 52°29' E 004°26'12 6.0
2020-Jul-23 13:31N 52°18' E 004°20'14 4.7
2020-Jul-23 10:30N 52°05' E 004°10'16 2.9
2020-Jul-23 05:01N 51°49' E 004°02'1 1.0
2020-Jul-23 03:59N 51°49' E 004°04'0 0.0
2020-Jul-23 02:29N 51°49' E 004°04'0 0.0
2020-Jul-23 01:29N 51°49' E 004°04'0 0.0
2020-Jul-22 23:29N 51°49' E 004°04'0 0.0
2020-Jul-22 20:29N 51°49' E 004°04'1 0.6
2020-Jul-22 18:30N 51°49' E 004°05'6 5.8
2020-Jul-22 17:30N 51°46' E 004°14'5 5.3
2020-Jul-22 16:30N 51°44' E 004°22'5 1.1
2020-Jul-22 11:58N 51°39' E 004°19'6 4.0
2020-Jul-22 10:30N 51°40' E 004°10'9 1.9
2020-Jul-22 05:30N 51°31' E 004°04'4 0.2
2020-Jul-21 13:25N 51°28' E 004°00'2 1.4
2020-Jul-21 12:00N 51°27' E 003°58'9 3.7
2020-Jul-21 09:31N 51°24' E 003°43'7 4.8
2020-Jul-21 08:00N 51°27' E 003°33'3 5.6
2020-Jul-21 07:31N 51°29' E 003°30'22 2.9
2020-Jul-20 23:50N 51°50' E 003°41'17 6.1
2020-Jul-20 21:00N 52°02' E 004°02'12 6.0
2020-Jul-20 19:01N 52°13' E 004°08'18 5.1
2020-Jul-20 15:30N 52°27' E 004°26'2 4.4
2020-Jul-20 15:01N 52°29' E 004°27'4 4.4
2020-Jul-20 14:01N 52°34' E 004°30'  
2020-Jul-18 05:30N 52°58' E 004°47'0 0.0
2020-Jul-18 02:06N 52°58' E 004°47'0 0.0
2020-Jul-17 12:11N 52°58' E 004°47'0 0.0
2020-Jul-16 03:40N 52°58' E 004°47'0 0.0
2020-Jul-16 02:46N 52°58' E 004°47'0 0.0
2020-Jul-16 02:20N 52°58' E 004°47'  

Dump ship's entire track history